sensor_id;sensor_type;location;lat;lon;timestamp;P1;durP1;ratioP1;P2;durP2;ratioP2
1995;SDS011;38556;47.068;15.408;2023-07-30T00:00:37;13.83;;;13.03;;
1995;SDS011;38556;47.068;15.408;2023-07-30T00:03:05;14.40;;;13.70;;
1995;SDS011;38556;47.068;15.408;2023-07-30T00:05:32;14.43;;;13.63;;
1995;SDS011;38556;47.068;15.408;2023-07-30T00:07:59;13.77;;;13.17;;
1995;SDS011;38556;47.068;15.408;2023-07-30T00:10:26;13.67;;;13.07;;
1995;SDS011;38556;47.068;15.408;2023-07-30T00:12:54;13.40;;;12.80;;
1995;SDS011;38556;47.068;15.408;2023-07-30T00:15:22;14.90;;;13.90;;
1995;SDS011;38556;47.068;15.408;2023-07-30T00:17:50;13.00;;;12.50;;
1995;SDS011;38556;47.068;15.408;2023-07-30T00:20:17;13.20;;;12.60;;
1995;SDS011;38556;47.068;15.408;2023-07-30T00:22:45;13.40;;;12.70;;
1995;SDS011;38556;47.068;15.408;2023-07-30T00:25:12;13.10;;;12.40;;
1995;SDS011;38556;47.068;15.408;2023-07-30T00:27:39;13.03;;;12.50;;
1995;SDS011;38556;47.068;15.408;2023-07-30T00:30:07;12.67;;;12.17;;
1995;SDS011;38556;47.068;15.408;2023-07-30T00:32:36;13.30;;;12.70;;
1995;SDS011;38556;47.068;15.408;2023-07-30T00:35:06;13.27;;;12.67;;
1995;SDS011;38556;47.068;15.408;2023-07-30T00:37:34;13.30;;;12.73;;
1995;SDS011;38556;47.068;15.408;2023-07-30T00:40:02;13.47;;;12.57;;
1995;SDS011;38556;47.068;15.408;2023-07-30T00:42:30;14.93;;;13.70;;
1995;SDS011;38556;47.068;15.408;2023-07-30T00:44:57;13.70;;;12.97;;
1995;SDS011;38556;47.068;15.408;2023-07-30T00:47:25;13.57;;;12.87;;
1995;SDS011;38556;47.068;15.408;2023-07-30T00:49:54;13.27;;;12.77;;
1995;SDS011;38556;47.068;15.408;2023-07-30T00:52:22;13.43;;;12.83;;
1995;SDS011;38556;47.068;15.408;2023-07-30T00:54:50;13.87;;;13.27;;
1995;SDS011;38556;47.068;15.408;2023-07-30T00:57:19;14.00;;;13.20;;
1995;SDS011;38556;47.068;15.408;2023-07-30T00:59:46;13.90;;;13.07;;
1995;SDS011;38556;47.068;15.408;2023-07-30T01:02:15;13.93;;;13.33;;
1995;SDS011;38556;47.068;15.408;2023-07-30T01:04:43;13.40;;;12.80;;
1995;SDS011;38556;47.068;15.408;2023-07-30T01:07:11;12.80;;;12.30;;
1995;SDS011;38556;47.068;15.408;2023-07-30T01:09:39;13.87;;;13.27;;
1995;SDS011;38556;47.068;15.408;2023-07-30T01:12:07;13.13;;;12.60;;
1995;SDS011;38556;47.068;15.408;2023-07-30T01:14:35;13.90;;;13.27;;
1995;SDS011;38556;47.068;15.408;2023-07-30T01:17:04;13.87;;;13.27;;
1995;SDS011;38556;47.068;15.408;2023-07-30T01:19:32;14.67;;;14.00;;
1995;SDS011;38556;47.068;15.408;2023-07-30T01:22:00;13.90;;;13.00;;
1995;SDS011;38556;47.068;15.408;2023-07-30T01:24:27;13.37;;;12.67;;
1995;SDS011;38556;47.068;15.408;2023-07-30T01:26:55;13.30;;;12.70;;
1995;SDS011;38556;47.068;15.408;2023-07-30T01:29:27;13.77;;;13.07;;
1995;SDS011;38556;47.068;15.408;2023-07-30T01:31:57;14.13;;;13.43;;
1995;SDS011;38556;47.068;15.408;2023-07-30T01:34:30;13.90;;;13.20;;
1995;SDS011;38556;47.068;15.408;2023-07-30T01:37:04;13.80;;;13.20;;
1995;SDS011;38556;47.068;15.408;2023-07-30T01:39:32;13.57;;;12.90;;
1995;SDS011;38556;47.068;15.408;2023-07-30T01:42:00;13.80;;;13.10;;
1995;SDS011;38556;47.068;15.408;2023-07-30T01:44:28;13.20;;;12.40;;
1995;SDS011;38556;47.068;15.408;2023-07-30T01:46:56;14.40;;;13.50;;
1995;SDS011;38556;47.068;15.408;2023-07-30T01:49:23;14.30;;;13.40;;
1995;SDS011;38556;47.068;15.408;2023-07-30T01:51:50;13.40;;;12.80;;
1995;SDS011;38556;47.068;15.408;2023-07-30T01:54:19;13.30;;;12.60;;
1995;SDS011;38556;47.068;15.408;2023-07-30T01:56:47;12.87;;;12.27;;
1995;SDS011;38556;47.068;15.408;2023-07-30T01:59:14;13.10;;;12.50;;
1995;SDS011;38556;47.068;15.408;2023-07-30T02:01:42;13.30;;;12.70;;
1995;SDS011;38556;47.068;15.408;2023-07-30T02:04:09;14.10;;;13.20;;
1995;SDS011;38556;47.068;15.408;2023-07-30T02:06:37;13.00;;;12.50;;
1995;SDS011;38556;47.068;15.408;2023-07-30T02:09:04;13.83;;;13.23;;
1995;SDS011;38556;47.068;15.408;2023-07-30T02:11:33;13.97;;;13.27;;
1995;SDS011;38556;47.068;15.408;2023-07-30T02:14:00;13.50;;;13.00;;
1995;SDS011;38556;47.068;15.408;2023-07-30T02:16:27;14.40;;;13.50;;
1995;SDS011;38556;47.068;15.408;2023-07-30T02:18:54;13.50;;;13.00;;
1995;SDS011;38556;47.068;15.408;2023-07-30T02:21:22;13.50;;;12.93;;
1995;SDS011;38556;47.068;15.408;2023-07-30T02:23:49;14.23;;;13.63;;
1995;SDS011;38556;47.068;15.408;2023-07-30T02:26:16;14.20;;;13.50;;
1995;SDS011;38556;47.068;15.408;2023-07-30T02:28:45;14.40;;;13.70;;
1995;SDS011;38556;47.068;15.408;2023-07-30T02:31:12;14.30;;;13.47;;
1995;SDS011;38556;47.068;15.408;2023-07-30T02:33:39;15.23;;;14.43;;
1995;SDS011;38556;47.068;15.408;2023-07-30T02:36:07;13.90;;;13.30;;
1995;SDS011;38556;47.068;15.408;2023-07-30T02:38:34;14.30;;;13.70;;
1995;SDS011;38556;47.068;15.408;2023-07-30T02:41:01;14.30;;;13.70;;
1995;SDS011;38556;47.068;15.408;2023-07-30T02:43:28;14.63;;;14.00;;
1995;SDS011;38556;47.068;15.408;2023-07-30T02:45:57;14.97;;;14.27;;
1995;SDS011;38556;47.068;15.408;2023-07-30T02:48:24;15.07;;;14.37;;
1995;SDS011;38556;47.068;15.408;2023-07-30T02:50:51;15.30;;;14.30;;
1995;SDS011;38556;47.068;15.408;2023-07-30T02:53:18;14.50;;;13.60;;
1995;SDS011;38556;47.068;15.408;2023-07-30T02:55:46;14.60;;;13.90;;
1995;SDS011;38556;47.068;15.408;2023-07-30T02:58:13;14.70;;;13.97;;
1995;SDS011;38556;47.068;15.408;2023-07-30T03:00:40;15.00;;;14.33;;
1995;SDS011;38556;47.068;15.408;2023-07-30T03:03:09;14.10;;;13.50;;
1995;SDS011;38556;47.068;15.408;2023-07-30T03:05:36;14.60;;;13.90;;
1995;SDS011;38556;47.068;15.408;2023-07-30T03:08:03;15.43;;;14.60;;
1995;SDS011;38556;47.068;15.408;2023-07-30T03:10:30;16.17;;;15.03;;
1995;SDS011;38556;47.068;15.408;2023-07-30T03:12:57;15.00;;;14.10;;
1995;SDS011;38556;47.068;15.408;2023-07-30T03:15:24;15.40;;;14.60;;
1995;SDS011;38556;47.068;15.408;2023-07-30T03:17:54;15.13;;;14.43;;
1995;SDS011;38556;47.068;15.408;2023-07-30T03:20:22;15.50;;;14.60;;
1995;SDS011;38556;47.068;15.408;2023-07-30T03:22:49;15.30;;;14.60;;
1995;SDS011;38556;47.068;15.408;2023-07-30T03:25:17;14.53;;;13.93;;
1995;SDS011;38556;47.068;15.408;2023-07-30T03:27:44;15.37;;;14.57;;
1995;SDS011;38556;47.068;15.408;2023-07-30T03:30:11;15.03;;;14.07;;
1995;SDS011;38556;47.068;15.408;2023-07-30T03:32:39;14.60;;;14.00;;
1995;SDS011;38556;47.068;15.408;2023-07-30T03:35:06;15.13;;;14.33;;
1995;SDS011;38556;47.068;15.408;2023-07-30T03:37:35;15.17;;;14.37;;
1995;SDS011;38556;47.068;15.408;2023-07-30T03:40:03;15.37;;;14.67;;
1995;SDS011;38556;47.068;15.408;2023-07-30T03:42:31;16.07;;;15.37;;
1995;SDS011;38556;47.068;15.408;2023-07-30T03:44:58;15.30;;;14.60;;
1995;SDS011;38556;47.068;15.408;2023-07-30T03:47:26;16.50;;;15.70;;
1995;SDS011;38556;47.068;15.408;2023-07-30T03:49:53;15.37;;;14.57;;
1995;SDS011;38556;47.068;15.408;2023-07-30T03:52:20;15.83;;;15.00;;
1995;SDS011;38556;47.068;15.408;2023-07-30T03:54:49;15.00;;;14.23;;
1995;SDS011;38556;47.068;15.408;2023-07-30T03:57:16;15.20;;;14.30;;
1995;SDS011;38556;47.068;15.408;2023-07-30T03:59:43;14.80;;;14.00;;
1995;SDS011;38556;47.068;15.408;2023-07-30T04:02:11;14.17;;;13.50;;
1995;SDS011;38556;47.068;15.408;2023-07-30T04:04:41;14.57;;;13.97;;
1995;SDS011;38556;47.068;15.408;2023-07-30T04:07:08;15.53;;;14.40;;
1995;SDS011;38556;47.068;15.408;2023-07-30T04:09:36;14.47;;;13.87;;
1995;SDS011;38556;47.068;15.408;2023-07-30T04:12:05;13.80;;;13.20;;
1995;SDS011;38556;47.068;15.408;2023-07-30T04:14:32;14.00;;;13.40;;
1995;SDS011;38556;47.068;15.408;2023-07-30T04:17:00;14.50;;;13.90;;
1995;SDS011;38556;47.068;15.408;2023-07-30T04:19:27;14.83;;;14.03;;
1995;SDS011;38556;47.068;15.408;2023-07-30T04:21:54;14.70;;;13.90;;
1995;SDS011;38556;47.068;15.408;2023-07-30T04:24:21;14.03;;;13.43;;
1995;SDS011;38556;47.068;15.408;2023-07-30T04:26:48;14.00;;;13.10;;
1995;SDS011;38556;47.068;15.408;2023-07-30T04:29:17;14.50;;;13.80;;
1995;SDS011;38556;47.068;15.408;2023-07-30T04:31:44;14.63;;;13.87;;
1995;SDS011;38556;47.068;15.408;2023-07-30T04:34:12;15.13;;;14.43;;
1995;SDS011;38556;47.068;15.408;2023-07-30T04:36:40;15.33;;;14.57;;
1995;SDS011;38556;47.068;15.408;2023-07-30T04:39:07;14.60;;;13.70;;
1995;SDS011;38556;47.068;15.408;2023-07-30T04:41:35;14.43;;;13.83;;
1995;SDS011;38556;47.068;15.408;2023-07-30T04:44:02;14.40;;;13.30;;
1995;SDS011;38556;47.068;15.408;2023-07-30T04:46:31;14.53;;;13.80;;
1995;SDS011;38556;47.068;15.408;2023-07-30T04:49:01;13.47;;;12.77;;
1995;SDS011;38556;47.068;15.408;2023-07-30T04:51:29;14.47;;;13.67;;
1995;SDS011;38556;47.068;15.408;2023-07-30T04:53:56;13.57;;;12.87;;
1995;SDS011;38556;47.068;15.408;2023-07-30T04:56:23;14.30;;;13.50;;
1995;SDS011;38556;47.068;15.408;2023-07-30T04:58:53;14.43;;;13.73;;
1995;SDS011;38556;47.068;15.408;2023-07-30T05:01:20;14.27;;;13.67;;
1995;SDS011;38556;47.068;15.408;2023-07-30T05:03:49;13.97;;;13.37;;
1995;SDS011;38556;47.068;15.408;2023-07-30T05:06:16;15.23;;;14.60;;
1995;SDS011;38556;47.068;15.408;2023-07-30T05:08:44;14.13;;;13.50;;
1995;SDS011;38556;47.068;15.408;2023-07-30T05:11:12;13.10;;;12.50;;
1995;SDS011;38556;47.068;15.408;2023-07-30T05:13:39;14.00;;;13.30;;
1995;SDS011;38556;47.068;15.408;2023-07-30T05:16:06;13.50;;;12.80;;
1995;SDS011;38556;47.068;15.408;2023-07-30T05:18:33;13.20;;;12.40;;
1995;SDS011;38556;47.068;15.408;2023-07-30T05:21:02;13.17;;;12.57;;
1995;SDS011;38556;47.068;15.408;2023-07-30T05:23:29;13.23;;;12.53;;
1995;SDS011;38556;47.068;15.408;2023-07-30T05:25:56;14.30;;;13.60;;
1995;SDS011;38556;47.068;15.408;2023-07-30T05:28:23;12.60;;;12.00;;
1995;SDS011;38556;47.068;15.408;2023-07-30T05:30:51;13.33;;;12.43;;
1995;SDS011;38556;47.068;15.408;2023-07-30T05:33:18;13.37;;;12.67;;
1995;SDS011;38556;47.068;15.408;2023-07-30T05:35:45;12.70;;;12.20;;
1995;SDS011;38556;47.068;15.408;2023-07-30T05:38:15;14.07;;;13.23;;
1995;SDS011;38556;47.068;15.408;2023-07-30T05:40:42;13.43;;;12.67;;
1995;SDS011;38556;47.068;15.408;2023-07-30T05:43:10;13.13;;;12.53;;
1995;SDS011;38556;47.068;15.408;2023-07-30T05:45:37;14.00;;;13.30;;
1995;SDS011;38556;47.068;15.408;2023-07-30T05:48:04;13.87;;;13.17;;
1995;SDS011;38556;47.068;15.408;2023-07-30T05:50:32;15.07;;;14.00;;
1995;SDS011;38556;47.068;15.408;2023-07-30T05:52:59;13.03;;;12.33;;
1995;SDS011;38556;47.068;15.408;2023-07-30T05:55:28;13.07;;;12.40;;
1995;SDS011;38556;47.068;15.408;2023-07-30T05:57:55;13.73;;;12.93;;
1995;SDS011;38556;47.068;15.408;2023-07-30T06:00:22;13.67;;;12.93;;
1995;SDS011;38556;47.068;15.408;2023-07-30T06:02:50;13.80;;;13.10;;
1995;SDS011;38556;47.068;15.408;2023-07-30T06:05:17;15.20;;;14.50;;
1995;SDS011;38556;47.068;15.408;2023-07-30T06:07:45;14.30;;;13.70;;
1995;SDS011;38556;47.068;15.408;2023-07-30T06:10:13;14.40;;;13.60;;
1995;SDS011;38556;47.068;15.408;2023-07-30T06:12:42;14.70;;;14.00;;
1995;SDS011;38556;47.068;15.408;2023-07-30T06:15:09;15.23;;;14.43;;
1995;SDS011;38556;47.068;15.408;2023-07-30T06:17:36;14.77;;;14.07;;
1995;SDS011;38556;47.068;15.408;2023-07-30T06:20:04;15.90;;;15.03;;
1995;SDS011;38556;47.068;15.408;2023-07-30T06:22:32;15.10;;;14.30;;
1995;SDS011;38556;47.068;15.408;2023-07-30T06:24:59;14.70;;;13.90;;
1995;SDS011;38556;47.068;15.408;2023-07-30T06:27:27;14.90;;;14.00;;
1995;SDS011;38556;47.068;15.408;2023-07-30T06:29:56;17.67;;;16.57;;
1995;SDS011;38556;47.068;15.408;2023-07-30T06:32:23;30.83;;;28.43;;
1995;SDS011;38556;47.068;15.408;2023-07-30T06:34:51;18.93;;;17.93;;
1995;SDS011;38556;47.068;15.408;2023-07-30T06:37:18;18.00;;;16.70;;
1995;SDS011;38556;47.068;15.408;2023-07-30T06:39:45;17.00;;;16.10;;
1995;SDS011;38556;47.068;15.408;2023-07-30T06:42:12;16.83;;;15.83;;
1995;SDS011;38556;47.068;15.408;2023-07-30T06:44:40;15.23;;;14.53;;
1995;SDS011;38556;47.068;15.408;2023-07-30T06:47:08;15.77;;;15.00;;
1995;SDS011;38556;47.068;15.408;2023-07-30T06:49:36;15.70;;;14.70;;
1995;SDS011;38556;47.068;15.408;2023-07-30T06:52:03;16.20;;;15.50;;
1995;SDS011;38556;47.068;15.408;2023-07-30T06:54:31;16.10;;;15.30;;
1995;SDS011;38556;47.068;15.408;2023-07-30T06:56:59;16.10;;;15.20;;
1995;SDS011;38556;47.068;15.408;2023-07-30T06:59:26;15.93;;;15.20;;
1995;SDS011;38556;47.068;15.408;2023-07-30T07:01:53;16.10;;;15.30;;
1995;SDS011;38556;47.068;15.408;2023-07-30T07:04:22;16.60;;;15.80;;
1995;SDS011;38556;47.068;15.408;2023-07-30T07:06:49;16.03;;;15.33;;
1995;SDS011;38556;47.068;15.408;2023-07-30T07:09:16;15.83;;;15.03;;
1995;SDS011;38556;47.068;15.408;2023-07-30T07:11:44;17.60;;;16.70;;
1995;SDS011;38556;47.068;15.408;2023-07-30T07:14:11;17.10;;;16.30;;
1995;SDS011;38556;47.068;15.408;2023-07-30T07:16:38;18.10;;;17.07;;
1995;SDS011;38556;47.068;15.408;2023-07-30T07:19:06;16.67;;;15.87;;
1995;SDS011;38556;47.068;15.408;2023-07-30T07:21:35;16.80;;;16.00;;
1995;SDS011;38556;47.068;15.408;2023-07-30T07:24:02;17.07;;;16.17;;
1995;SDS011;38556;47.068;15.408;2023-07-30T07:26:29;17.10;;;16.10;;
1995;SDS011;38556;47.068;15.408;2023-07-30T07:28:56;16.90;;;16.10;;
1995;SDS011;38556;47.068;15.408;2023-07-30T07:31:23;17.23;;;16.43;;
1995;SDS011;38556;47.068;15.408;2023-07-30T07:33:51;16.97;;;16.17;;
1995;SDS011;38556;47.068;15.408;2023-07-30T07:36:18;17.67;;;16.77;;
1995;SDS011;38556;47.068;15.408;2023-07-30T07:38:48;17.23;;;16.43;;
1995;SDS011;38556;47.068;15.408;2023-07-30T07:41:15;17.50;;;16.50;;
1995;SDS011;38556;47.068;15.408;2023-07-30T07:43:43;17.40;;;16.60;;
1995;SDS011;38556;47.068;15.408;2023-07-30T07:46:10;17.67;;;16.77;;
1995;SDS011;38556;47.068;15.408;2023-07-30T07:48:39;17.47;;;16.67;;
1995;SDS011;38556;47.068;15.408;2023-07-30T07:51:08;17.93;;;17.03;;
1995;SDS011;38556;47.068;15.408;2023-07-30T07:53:36;17.13;;;16.40;;
1995;SDS011;38556;47.068;15.408;2023-07-30T07:56:05;17.67;;;16.77;;
1995;SDS011;38556;47.068;15.408;2023-07-30T07:58:32;17.67;;;16.67;;
1995;SDS011;38556;47.068;15.408;2023-07-30T08:01:01;17.67;;;16.73;;
1995;SDS011;38556;47.068;15.408;2023-07-30T08:03:28;17.80;;;16.90;;
1995;SDS011;38556;47.068;15.408;2023-07-30T08:05:56;17.13;;;16.27;;
1995;SDS011;38556;47.068;15.408;2023-07-30T08:08:23;17.77;;;16.87;;
1995;SDS011;38556;47.068;15.408;2023-07-30T08:10:52;17.90;;;16.93;;
1995;SDS011;38556;47.068;15.408;2023-07-30T08:13:21;17.83;;;16.93;;
1995;SDS011;38556;47.068;15.408;2023-07-30T08:15:48;18.20;;;17.20;;
1995;SDS011;38556;47.068;15.408;2023-07-30T08:18:15;17.63;;;16.73;;
1995;SDS011;38556;47.068;15.408;2023-07-30T08:20:43;17.50;;;16.60;;
1995;SDS011;38556;47.068;15.408;2023-07-30T08:23:10;17.37;;;16.57;;
1995;SDS011;38556;47.068;15.408;2023-07-30T08:25:37;17.60;;;16.70;;
1995;SDS011;38556;47.068;15.408;2023-07-30T08:28:05;17.40;;;16.50;;
1995;SDS011;38556;47.068;15.408;2023-07-30T08:30:33;17.10;;;16.40;;
1995;SDS011;38556;47.068;15.408;2023-07-30T08:33:01;17.20;;;16.40;;
1995;SDS011;38556;47.068;15.408;2023-07-30T08:35:28;17.83;;;16.93;;
1995;SDS011;38556;47.068;15.408;2023-07-30T08:37:55;17.30;;;16.50;;
1995;SDS011;38556;47.068;15.408;2023-07-30T08:40:23;17.07;;;16.17;;
1995;SDS011;38556;47.068;15.408;2023-07-30T08:42:50;17.43;;;16.53;;
1995;SDS011;38556;47.068;15.408;2023-07-30T08:45:18;17.50;;;16.70;;
1995;SDS011;38556;47.068;15.408;2023-07-30T08:47:47;18.27;;;17.30;;
1995;SDS011;38556;47.068;15.408;2023-07-30T08:50:15;18.30;;;17.47;;
1995;SDS011;38556;47.068;15.408;2023-07-30T08:52:42;20.70;;;19.60;;
1995;SDS011;38556;47.068;15.408;2023-07-30T08:55:10;17.13;;;16.20;;
1995;SDS011;38556;47.068;15.408;2023-07-30T08:57:38;17.90;;;17.00;;
1995;SDS011;38556;47.068;15.408;2023-07-30T09:00:08;18.83;;;17.83;;
1995;SDS011;38556;47.068;15.408;2023-07-30T09:02:37;18.90;;;17.87;;
1995;SDS011;38556;47.068;15.408;2023-07-30T09:05:08;18.43;;;17.53;;
1995;SDS011;38556;47.068;15.408;2023-07-30T09:07:36;22.47;;;20.90;;
1995;SDS011;38556;47.068;15.408;2023-07-30T09:10:03;19.37;;;18.23;;
1995;SDS011;38556;47.068;15.408;2023-07-30T09:12:31;23.07;;;21.10;;
1995;SDS011;38556;47.068;15.408;2023-07-30T09:14:59;20.10;;;18.80;;
1995;SDS011;38556;47.068;15.408;2023-07-30T09:17:28;21.57;;;20.07;;
1995;SDS011;38556;47.068;15.408;2023-07-30T09:19:55;17.80;;;16.90;;
1995;SDS011;38556;47.068;15.408;2023-07-30T09:22:27;18.70;;;17.70;;
1995;SDS011;38556;47.068;15.408;2023-07-30T09:24:55;19.03;;;17.87;;
1995;SDS011;38556;47.068;15.408;2023-07-30T09:27:24;18.30;;;17.40;;
1995;SDS011;38556;47.068;15.408;2023-07-30T09:29:53;19.50;;;18.37;;
1995;SDS011;38556;47.068;15.408;2023-07-30T09:32:25;18.57;;;17.50;;
1995;SDS011;38556;47.068;15.408;2023-07-30T09:34:53;17.77;;;16.87;;
1995;SDS011;38556;47.068;15.408;2023-07-30T09:37:20;18.50;;;17.63;;
1995;SDS011;38556;47.068;15.408;2023-07-30T09:39:49;18.33;;;17.23;;
1995;SDS011;38556;47.068;15.408;2023-07-30T09:42:16;17.93;;;16.83;;
1995;SDS011;38556;47.068;15.408;2023-07-30T09:44:46;17.90;;;16.90;;
1995;SDS011;38556;47.068;15.408;2023-07-30T09:47:13;19.20;;;18.10;;
1995;SDS011;38556;47.068;15.408;2023-07-30T09:49:41;17.43;;;16.63;;
1995;SDS011;38556;47.068;15.408;2023-07-30T09:52:08;18.37;;;17.37;;
1995;SDS011;38556;47.068;15.408;2023-07-30T09:54:37;17.10;;;16.30;;
1995;SDS011;38556;47.068;15.408;2023-07-30T09:57:07;18.47;;;17.57;;
1995;SDS011;38556;47.068;15.408;2023-07-30T09:59:34;18.10;;;17.10;;
1995;SDS011;38556;47.068;15.408;2023-07-30T10:02:03;17.97;;;17.07;;
1995;SDS011;38556;47.068;15.408;2023-07-30T10:04:32;16.50;;;15.80;;
1995;SDS011;38556;47.068;15.408;2023-07-30T10:07:03;17.37;;;16.47;;
1995;SDS011;38556;47.068;15.408;2023-07-30T10:09:35;17.27;;;16.33;;
1995;SDS011;38556;47.068;15.408;2023-07-30T10:12:10;17.53;;;16.73;;
1995;SDS011;38556;47.068;15.408;2023-07-30T10:14:40;18.10;;;17.30;;
1995;SDS011;38556;47.068;15.408;2023-07-30T10:17:09;18.00;;;17.20;;
1995;SDS011;38556;47.068;15.408;2023-07-30T10:19:38;17.97;;;17.17;;
1995;SDS011;38556;47.068;15.408;2023-07-30T10:22:19;17.80;;;17.00;;
1995;SDS011;38556;47.068;15.408;2023-07-30T10:24:55;17.03;;;16.33;;
1995;SDS011;38556;47.068;15.408;2023-07-30T10:27:25;18.07;;;17.27;;
1995;SDS011;38556;47.068;15.408;2023-07-30T10:30:10;17.60;;;16.70;;
1995;SDS011;38556;47.068;15.408;2023-07-30T10:32:38;16.97;;;16.27;;
1995;SDS011;38556;47.068;15.408;2023-07-30T10:35:06;16.63;;;15.83;;
1995;SDS011;38556;47.068;15.408;2023-07-30T10:37:34;16.90;;;16.10;;
1995;SDS011;38556;47.068;15.408;2023-07-30T10:40:13;17.27;;;16.47;;
1995;SDS011;38556;47.068;15.408;2023-07-30T10:42:44;17.13;;;16.33;;
1995;SDS011;38556;47.068;15.408;2023-07-30T10:45:12;18.13;;;17.13;;
1995;SDS011;38556;47.068;15.408;2023-07-30T10:47:40;16.83;;;16.07;;
1995;SDS011;38556;47.068;15.408;2023-07-30T10:50:08;16.73;;;16.00;;
1995;SDS011;38556;47.068;15.408;2023-07-30T10:52:38;16.77;;;15.97;;
1995;SDS011;38556;47.068;15.408;2023-07-30T10:55:06;16.90;;;16.20;;
1995;SDS011;38556;47.068;15.408;2023-07-30T10:57:34;16.70;;;16.00;;
1995;SDS011;38556;47.068;15.408;2023-07-30T11:00:03;17.30;;;16.60;;
1995;SDS011;38556;47.068;15.408;2023-07-30T11:02:33;16.87;;;16.17;;
1995;SDS011;38556;47.068;15.408;2023-07-30T11:05:10;16.60;;;15.83;;
1995;SDS011;38556;47.068;15.408;2023-07-30T11:07:38;17.00;;;16.20;;
1995;SDS011;38556;47.068;15.408;2023-07-30T11:10:05;17.17;;;16.37;;
1995;SDS011;38556;47.068;15.408;2023-07-30T11:12:33;17.10;;;16.30;;
1995;SDS011;38556;47.068;15.408;2023-07-30T11:15:01;16.73;;;15.97;;
1995;SDS011;38556;47.068;15.408;2023-07-30T11:17:30;17.10;;;16.20;;
1995;SDS011;38556;47.068;15.408;2023-07-30T11:19:57;16.80;;;16.00;;
1995;SDS011;38556;47.068;15.408;2023-07-30T11:22:31;16.50;;;15.80;;
1995;SDS011;38556;47.068;15.408;2023-07-30T11:24:59;16.90;;;16.20;;
1995;SDS011;38556;47.068;15.408;2023-07-30T11:27:44;16.60;;;15.90;;
1995;SDS011;38556;47.068;15.408;2023-07-30T11:30:13;16.80;;;16.00;;
1995;SDS011;38556;47.068;15.408;2023-07-30T11:32:41;16.93;;;16.20;;
1995;SDS011;38556;47.068;15.408;2023-07-30T11:35:09;16.20;;;15.50;;
1995;SDS011;38556;47.068;15.408;2023-07-30T11:37:38;16.80;;;16.00;;
1995;SDS011;38556;47.068;15.408;2023-07-30T11:40:08;17.10;;;16.30;;
1995;SDS011;38556;47.068;15.408;2023-07-30T11:42:36;16.70;;;16.00;;
1995;SDS011;38556;47.068;15.408;2023-07-30T11:45:21;16.57;;;15.80;;
1995;SDS011;38556;47.068;15.408;2023-07-30T11:47:50;17.40;;;16.60;;
1995;SDS011;38556;47.068;15.408;2023-07-30T11:50:17;17.00;;;16.30;;
1995;SDS011;38556;47.068;15.408;2023-07-30T11:52:52;17.17;;;16.40;;
1995;SDS011;38556;47.068;15.408;2023-07-30T11:55:19;16.90;;;16.20;;
1995;SDS011;38556;47.068;15.408;2023-07-30T11:57:47;16.87;;;16.17;;
1995;SDS011;38556;47.068;15.408;2023-07-30T12:00:14;17.27;;;16.47;;
1995;SDS011;38556;47.068;15.408;2023-07-30T12:02:43;17.03;;;16.23;;
1995;SDS011;38556;47.068;15.408;2023-07-30T12:05:10;17.63;;;16.77;;
1995;SDS011;38556;47.068;15.408;2023-07-30T12:07:41;17.70;;;16.90;;
1995;SDS011;38556;47.068;15.408;2023-07-30T12:10:08;17.90;;;17.10;;
1995;SDS011;38556;47.068;15.408;2023-07-30T12:12:37;17.90;;;17.10;;
1995;SDS011;38556;47.068;15.408;2023-07-30T12:15:10;17.80;;;17.00;;
1995;SDS011;38556;47.068;15.408;2023-07-30T12:17:39;17.17;;;16.47;;
1995;SDS011;38556;47.068;15.408;2023-07-30T12:20:08;16.80;;;16.10;;
1995;SDS011;38556;47.068;15.408;2023-07-30T12:22:37;17.07;;;16.27;;
1995;SDS011;38556;47.068;15.408;2023-07-30T12:25:07;17.30;;;16.50;;
1995;SDS011;38556;47.068;15.408;2023-07-30T12:27:36;17.10;;;16.20;;
1995;SDS011;38556;47.068;15.408;2023-07-30T12:30:03;17.53;;;16.73;;
1995;SDS011;38556;47.068;15.408;2023-07-30T12:32:31;16.63;;;15.70;;
1995;SDS011;38556;47.068;15.408;2023-07-30T12:34:58;16.80;;;16.00;;
1995;SDS011;38556;47.068;15.408;2023-07-30T12:37:27;17.40;;;16.60;;
1995;SDS011;38556;47.068;15.408;2023-07-30T12:39:55;16.77;;;16.07;;
1995;SDS011;38556;47.068;15.408;2023-07-30T12:42:22;17.20;;;16.50;;
1995;SDS011;38556;47.068;15.408;2023-07-30T12:44:49;17.17;;;16.47;;
1995;SDS011;38556;47.068;15.408;2023-07-30T12:47:16;17.67;;;16.53;;
1995;SDS011;38556;47.068;15.408;2023-07-30T12:49:44;17.57;;;16.80;;
1995;SDS011;38556;47.068;15.408;2023-07-30T12:52:11;19.50;;;18.30;;
1995;SDS011;38556;47.068;15.408;2023-07-30T12:54:39;17.87;;;17.07;;
1995;SDS011;38556;47.068;15.408;2023-07-30T12:57:07;20.57;;;18.73;;
1995;SDS011;38556;47.068;15.408;2023-07-30T12:59:34;19.10;;;17.90;;
1995;SDS011;38556;47.068;15.408;2023-07-30T13:02:03;23.10;;;21.60;;
1995;SDS011;38556;47.068;15.408;2023-07-30T13:04:32;17.67;;;16.77;;
1995;SDS011;38556;47.068;15.408;2023-07-30T13:07:01;17.67;;;16.87;;
1995;SDS011;38556;47.068;15.408;2023-07-30T13:09:30;17.53;;;16.73;;
1995;SDS011;38556;47.068;15.408;2023-07-30T13:12:01;17.90;;;17.00;;
1995;SDS011;38556;47.068;15.408;2023-07-30T13:14:30;17.07;;;16.27;;
1995;SDS011;38556;47.068;15.408;2023-07-30T13:17:00;17.30;;;16.23;;
1995;SDS011;38556;47.068;15.408;2023-07-30T13:19:29;16.23;;;15.40;;
1995;SDS011;38556;47.068;15.408;2023-07-30T13:21:59;17.30;;;16.50;;
1995;SDS011;38556;47.068;15.408;2023-07-30T13:24:28;16.10;;;15.40;;
1995;SDS011;38556;47.068;15.408;2023-07-30T13:26:58;16.20;;;15.50;;
1995;SDS011;38556;47.068;15.408;2023-07-30T13:29:28;16.37;;;15.67;;
1995;SDS011;38556;47.068;15.408;2023-07-30T13:31:57;16.80;;;16.10;;
1995;SDS011;38556;47.068;15.408;2023-07-30T13:34:26;17.80;;;17.00;;
1995;SDS011;38556;47.068;15.408;2023-07-30T13:36:55;16.30;;;15.60;;
1995;SDS011;38556;47.068;15.408;2023-07-30T13:39:24;16.80;;;16.10;;
1995;SDS011;38556;47.068;15.408;2023-07-30T13:41:53;16.67;;;15.97;;
1995;SDS011;38556;47.068;15.408;2023-07-30T13:44:22;16.40;;;15.70;;
1995;SDS011;38556;47.068;15.408;2023-07-30T13:46:53;16.10;;;15.40;;
1995;SDS011;38556;47.068;15.408;2023-07-30T13:49:22;16.27;;;15.57;;
1995;SDS011;38556;47.068;15.408;2023-07-30T13:51:51;17.20;;;16.40;;
1995;SDS011;38556;47.068;15.408;2023-07-30T13:54:20;16.60;;;15.90;;
1995;SDS011;38556;47.068;15.408;2023-07-30T13:56:50;16.20;;;15.40;;
1995;SDS011;38556;47.068;15.408;2023-07-30T13:59:18;17.30;;;16.50;;
1995;SDS011;38556;47.068;15.408;2023-07-30T14:01:47;17.10;;;16.20;;
1995;SDS011;38556;47.068;15.408;2023-07-30T14:04:18;16.47;;;15.77;;
1995;SDS011;38556;47.068;15.408;2023-07-30T14:06:47;17.20;;;16.40;;
1995;SDS011;38556;47.068;15.408;2023-07-30T14:09:15;16.60;;;15.90;;
1995;SDS011;38556;47.068;15.408;2023-07-30T14:11:44;16.07;;;15.27;;
1995;SDS011;38556;47.068;15.408;2023-07-30T14:14:13;16.67;;;15.97;;
1995;SDS011;38556;47.068;15.408;2023-07-30T14:16:41;16.77;;;16.07;;
1995;SDS011;38556;47.068;15.408;2023-07-30T14:19:10;16.93;;;16.10;;
1995;SDS011;38556;47.068;15.408;2023-07-30T14:21:41;15.50;;;14.83;;
1995;SDS011;38556;47.068;15.408;2023-07-30T14:24:10;16.53;;;15.60;;
1995;SDS011;38556;47.068;15.408;2023-07-30T14:26:39;15.97;;;15.27;;